createdAt,value
2023-11-08T00:01:24.577Z,10.47
2023-11-08T00:03:51.271Z,10.49
2023-11-08T00:06:17.999Z,10.50
2023-11-08T00:08:45.835Z,10.45
2023-11-08T00:11:13.495Z,10.49
2023-11-08T00:13:40.090Z,10.50
2023-11-08T00:16:07.052Z,10.50
2023-11-08T00:18:34.752Z,10.51
2023-11-08T00:21:02.493Z,10.52
2023-11-08T00:23:30.120Z,10.52
2023-11-08T00:25:57.763Z,10.52
2023-11-08T00:28:25.428Z,10.49
2023-11-08T00:30:53.041Z,10.52
2023-11-08T00:33:19.830Z,10.46
2023-11-08T00:35:46.442Z,10.53
2023-11-08T00:38:14.099Z,10.44
2023-11-08T00:40:40.646Z,10.50
2023-11-08T00:43:08.317Z,10.51
2023-11-08T00:45:35.035Z,10.51
2023-11-08T00:48:02.915Z,10.47
2023-11-08T00:50:30.740Z,10.50
2023-11-08T00:52:57.381Z,10.54
2023-11-08T00:55:24.972Z,10.50
2023-11-08T00:57:52.373Z,10.51
2023-11-08T01:00:20.555Z,10.50
2023-11-08T01:02:47.231Z,10.50
2023-11-08T01:05:13.928Z,10.47
2023-11-08T01:07:41.594Z,10.41
2023-11-08T01:10:09.785Z,10.46
2023-11-08T01:12:36.384Z,10.41
2023-11-08T01:15:03.310Z,10.46
2023-11-08T01:17:30.982Z,10.47
2023-11-08T01:20:00.908Z,10.48
2023-11-08T01:22:27.514Z,10.48
2023-11-08T01:24:54.051Z,10.43
2023-11-08T01:27:21.883Z,10.48
2023-11-08T01:29:48.470Z,10.50
2023-11-08T01:32:15.072Z,10.43
2023-11-08T01:34:42.770Z,10.45
2023-11-08T01:37:10.233Z,10.46
2023-11-08T01:39:36.981Z,10.43
2023-11-08T01:42:04.729Z,10.47
2023-11-08T01:44:31.326Z,10.48
2023-11-08T01:46:58.238Z,10.42
2023-11-08T01:49:28.199Z,10.41
2023-11-08T01:51:55.570Z,10.42
2023-11-08T01:54:25.415Z,10.45
2023-11-08T01:56:52.124Z,10.39
2023-11-08T01:59:19.255Z,10.37
2023-11-08T02:01:47.817Z,10.39
2023-11-08T02:04:15.397Z,10.42
2023-11-08T02:06:42.023Z,10.42
2023-11-08T02:09:09.667Z,10.39
2023-11-08T02:11:37.288Z,10.36
2023-11-08T02:14:04.902Z,10.34
2023-11-08T02:16:32.473Z,10.38
2023-11-08T02:19:01.864Z,10.40
2023-11-08T02:21:29.553Z,10.35
2023-11-08T02:23:56.332Z,10.42
2023-11-08T02:26:23.009Z,10.38
2023-11-08T02:28:50.716Z,10.39
2023-11-08T02:31:17.284Z,10.42
2023-11-08T02:33:45.266Z,10.47
2023-11-08T02:36:12.955Z,10.49
2023-11-08T02:38:40.599Z,10.51
2023-11-08T02:41:09.240Z,10.53
2023-11-08T02:43:36.841Z,10.52
2023-11-08T02:46:03.617Z,10.59
2023-11-08T02:48:32.326Z,10.68
2023-11-08T02:50:59.365Z,10.68
2023-11-08T02:53:25.941Z,10.74
2023-11-08T02:55:53.587Z,10.76
2023-11-08T02:58:20.190Z,10.81
2023-11-08T03:00:47.910Z,10.82
2023-11-08T03:03:14.559Z,10.86
2023-11-08T03:05:43.266Z,10.90
2023-11-08T03:08:09.909Z,10.87
2023-11-08T03:10:36.501Z,10.94
2023-11-08T03:13:04.174Z,11.03
2023-11-08T03:15:30.785Z,11.07
2023-11-08T03:17:58.421Z,11.09
2023-11-08T03:20:25.089Z,11.11
2023-11-08T03:22:52.727Z,11.07
2023-11-08T03:25:20.510Z,11.04
2023-11-08T03:27:47.130Z,11.09
2023-11-08T03:30:16.681Z,11.17
2023-11-08T03:32:43.964Z,11.19
2023-11-08T03:35:12.450Z,11.16
2023-11-08T03:37:40.522Z,11.26
2023-11-08T03:40:08.342Z,11.24
2023-11-08T03:42:36.022Z,11.30
2023-11-08T03:45:04.859Z,11.30
2023-11-08T03:47:31.527Z,11.39
2023-11-08T03:49:59.482Z,11.41
2023-11-08T03:52:26.062Z,11.44
2023-11-08T03:54:53.661Z,11.49
2023-11-08T03:57:21.565Z,11.49
2023-11-08T03:59:48.486Z,11.52
2023-11-08T04:02:15.072Z,11.62
2023-11-08T04:04:43.919Z,11.62
2023-11-08T04:07:10.404Z,11.72
2023-11-08T04:09:38.079Z,11.75
2023-11-08T04:12:04.779Z,11.76
2023-11-08T04:14:32.421Z,11.82
2023-11-08T04:16:59.029Z,11.83
2023-11-08T04:19:25.631Z,11.86
2023-11-08T04:21:53.361Z,11.89
2023-11-08T04:24:21.880Z,11.88
2023-11-08T04:26:52.519Z,11.93
2023-11-08T04:29:24.825Z,11.93
2023-11-08T04:31:52.968Z,11.98
2023-11-08T04:34:26.654Z,11.97
2023-11-08T04:36:53.844Z,12.00
2023-11-08T04:39:20.677Z,11.99
2023-11-08T04:41:48.346Z,11.97
2023-11-08T04:44:14.962Z,11.98
2023-11-08T04:46:43.123Z,11.94
2023-11-08T04:49:09.813Z,11.96
2023-11-08T04:51:36.553Z,11.88
2023-11-08T04:54:05.230Z,11.88
2023-11-08T04:56:31.783Z,11.78
2023-11-08T04:58:59.368Z,11.77
2023-11-08T05:01:25.963Z,11.68
2023-11-08T05:03:53.612Z,11.59
2023-11-08T05:06:21.402Z,11.56
2023-11-08T05:08:48.029Z,11.49
2023-11-08T05:11:15.674Z,11.45
2023-11-08T05:13:42.229Z,11.33
2023-11-08T05:16:12.829Z,11.32
2023-11-08T05:18:39.864Z,11.26
2023-11-08T05:21:06.499Z,11.05
2023-11-08T05:23:34.128Z,11.23
2023-11-08T05:26:00.738Z,11.18
2023-11-08T05:28:28.361Z,11.17
2023-11-08T05:30:54.985Z,11.12
2023-11-08T05:33:22.682Z,11.10
2023-11-08T05:35:50.468Z,10.99
2023-11-08T05:38:18.163Z,11.02
2023-11-08T05:40:45.806Z,10.99
2023-11-08T05:43:12.391Z,10.99
2023-11-08T05:45:40.009Z,10.99
2023-11-08T05:48:06.752Z,10.94
2023-11-08T05:50:33.317Z,10.94
2023-11-08T05:53:00.991Z,10.82
2023-11-08T05:55:27.592Z,10.82
2023-11-08T05:57:54.187Z,10.85
2023-11-08T06:00:22.279Z,10.84
2023-11-08T06:02:50.043Z,10.83
2023-11-08T06:05:16.623Z,10.77
2023-11-08T06:07:45.240Z,10.77
2023-11-08T06:10:12.539Z,10.71
2023-11-08T06:12:39.240Z,10.62
2023-11-08T06:15:07.595Z,10.51
2023-11-08T06:17:34.234Z,10.42
2023-11-08T06:20:04.976Z,10.36
2023-11-08T06:22:32.644Z,10.33
2023-11-08T06:25:00.281Z,10.28
2023-11-08T06:27:26.964Z,10.26
2023-11-08T06:29:54.627Z,10.27
2023-11-08T06:32:21.230Z,10.25
2023-11-08T06:34:48.083Z,10.22
2023-11-08T06:37:15.859Z,10.20
2023-11-08T06:39:42.443Z,10.18
2023-11-08T06:42:10.364Z,10.13
2023-11-08T06:44:36.976Z,10.06
2023-11-08T06:47:04.833Z,9.99
2023-11-08T06:49:31.522Z,9.96
2023-11-08T06:51:58.218Z,9.89
2023-11-08T06:54:25.890Z,9.84
2023-11-08T06:56:52.494Z,9.85
2023-11-08T06:59:20.115Z,9.82
2023-11-08T07:01:47.694Z,9.80
2023-11-08T07:04:14.613Z,9.79
2023-11-08T07:06:44.504Z,9.76
2023-11-08T07:09:11.920Z,9.59
2023-11-08T07:11:39.911Z,9.63
2023-11-08T07:14:06.549Z,9.61
2023-11-08T07:16:34.417Z,9.57
2023-11-08T07:19:02.064Z,9.61
2023-11-08T07:21:28.753Z,9.58
2023-11-08T07:23:56.408Z,9.53
2023-11-08T07:26:23.084Z,9.49
2023-11-08T07:28:50.801Z,9.51
2023-11-08T07:31:17.383Z,9.47
2023-11-08T07:33:44.240Z,9.42
2023-11-08T07:36:11.947Z,9.38
2023-11-08T07:38:38.548Z,9.32
2023-11-08T07:41:05.158Z,9.31
2023-11-08T07:43:32.808Z,9.34
2023-11-08T07:46:00.558Z,9.32
2023-11-08T07:48:27.198Z,9.32
2023-11-08T07:50:55.723Z,9.32
2023-11-08T07:53:23.354Z,9.31
2023-11-08T07:55:49.916Z,9.32
2023-11-08T07:58:17.717Z,9.32
2023-11-08T08:00:44.695Z,9.29
2023-11-08T08:03:12.460Z,9.28
2023-11-08T08:05:39.052Z,9.31
2023-11-08T08:08:07.189Z,9.26
2023-11-08T08:10:33.745Z,9.31
2023-11-08T08:13:01.881Z,9.30
2023-11-08T08:15:28.484Z,9.31
2023-11-08T08:17:55.130Z,9.26
2023-11-08T08:20:22.812Z,9.29
2023-11-08T08:22:49.389Z,9.28
2023-11-08T08:25:16.717Z,9.29
2023-11-08T08:27:45.472Z,9.27
2023-11-08T08:30:12.957Z,9.27
2023-11-08T08:32:40.652Z,9.28
2023-11-08T08:35:07.648Z,9.27
2023-11-08T08:37:35.341Z,9.20
2023-11-08T08:40:01.974Z,9.29
2023-11-08T08:42:29.633Z,9.28
2023-11-08T08:44:56.224Z,9.28
2023-11-08T08:47:29.782Z,9.23
2023-11-08T08:49:59.508Z,9.25
2023-11-08T08:52:27.943Z,9.28
2023-11-08T08:54:55.585Z,9.27
2023-11-08T08:57:24.326Z,9.27
2023-11-08T08:59:50.939Z,9.27
2023-11-08T09:02:17.501Z,9.27
2023-11-08T09:04:45.200Z,9.29
2023-11-08T09:07:12.297Z,9.28
2023-11-08T09:09:38.917Z,9.34
2023-11-08T09:12:07.021Z,9.38
2023-11-08T09:14:33.576Z,9.36
2023-11-08T09:17:00.177Z,9.37
2023-11-08T09:19:27.888Z,9.38
2023-11-08T09:21:59.009Z,9.38
2023-11-08T09:24:26.650Z,9.42
2023-11-08T09:26:53.268Z,9.43
2023-11-08T09:29:19.876Z,9.52
2023-11-08T09:31:47.495Z,9.74
2023-11-08T09:34:14.588Z,9.87
2023-11-08T09:36:42.368Z,9.94
2023-11-08T09:39:10.066Z,10.11
2023-11-08T09:41:36.720Z,10.01
2023-11-08T09:44:05.123Z,10.12
2023-11-08T09:46:34.192Z,10.15
2023-11-08T09:49:02.039Z,10.18
2023-11-08T09:51:28.760Z,10.22
2023-11-08T09:53:56.464Z,10.21
2023-11-08T09:56:23.197Z,10.21
2023-11-08T09:58:52.767Z,10.16
2023-11-08T10:01:19.444Z,10.17
2023-11-08T10:03:47.326Z,10.18
2023-11-08T10:06:15.472Z,10.16
2023-11-08T10:08:43.338Z,10.20
2023-11-08T10:11:15.744Z,10.17
2023-11-08T10:13:46.130Z,10.09
2023-11-08T10:16:12.857Z,10.10
2023-11-08T10:19:35.565Z,10.05
2023-11-08T10:21:31.498Z,10.06
2023-11-08T10:24:12.457Z,10.04
2023-11-08T10:26:40.094Z,10.08
2023-11-08T10:29:07.385Z,10.14
2023-11-08T10:31:40.306Z,10.13
2023-11-08T10:34:09.918Z,10.11
2023-11-08T10:36:37.389Z,10.13
2023-11-08T10:39:08.480Z,10.13
2023-11-08T10:41:37.108Z,10.10
2023-11-08T10:44:16.062Z,10.11
2023-11-08T10:46:44.634Z,10.12
2023-11-08T10:49:13.227Z,10.14
2023-11-08T10:51:42.646Z,10.12
2023-11-08T10:54:09.943Z,10.13
2023-11-08T10:56:37.640Z,10.14
2023-11-08T10:59:05.950Z,10.19
2023-11-08T11:01:33.300Z,10.21
2023-11-08T11:04:09.244Z,10.27
2023-11-08T11:06:37.543Z,10.28
2023-11-08T11:09:07.618Z,10.36
2023-11-08T11:11:36.050Z,10.41
2023-11-08T11:14:24.701Z,10.47
2023-11-08T11:17:05.657Z,10.41
2023-11-08T11:19:35.815Z,10.41
2023-11-08T11:22:09.926Z,10.44
2023-11-08T11:24:47.104Z,10.48
2023-11-08T11:27:31.929Z,10.50
2023-11-08T11:30:17.665Z,10.65
2023-11-08T11:32:47.702Z,10.65
2023-11-08T11:35:19.826Z,10.69
2023-11-08T11:38:08.018Z,10.73
2023-11-08T11:40:37.030Z,10.85
2023-11-08T11:43:03.515Z,10.89
2023-11-08T11:45:33.195Z,10.90
2023-11-08T11:48:00.939Z,10.90
2023-11-08T11:50:27.537Z,10.90
2023-11-08T11:52:55.231Z,10.99
2023-11-08T11:55:21.864Z,11.04
2023-11-08T11:57:48.497Z,11.12
2023-11-08T12:00:16.342Z,11.12
2023-11-08T12:02:44.115Z,11.09
2023-11-08T12:05:11.692Z,11.13
2023-11-08T12:07:40.349Z,11.08
2023-11-08T12:10:08.778Z,11.12
2023-11-08T12:12:36.855Z,11.09
2023-11-08T12:15:18.498Z,11.04
2023-11-08T12:18:06.432Z,11.03
2023-11-08T12:20:43.974Z,11.05
2023-11-08T12:23:11.190Z,11.03
2023-11-08T12:25:39.328Z,11.08
2023-11-08T12:28:06.477Z,11.08
2023-11-08T12:30:35.466Z,11.08
2023-11-08T12:33:04.377Z,11.07
2023-11-08T12:35:30.864Z,11.13
2023-11-08T12:38:00.949Z,11.08
2023-11-08T12:40:28.975Z,11.14
2023-11-08T12:43:55.819Z,11.12
2023-11-08T12:46:35.168Z,11.18
2023-11-08T12:48:32.386Z,11.19
2023-11-08T12:51:05.861Z,11.18
2023-11-08T12:53:32.892Z,11.18
2023-11-08T12:56:00.709Z,11.24
2023-11-08T12:58:33.005Z,11.21
2023-11-08T13:01:00.781Z,11.20
2023-11-08T13:03:28.983Z,11.24
2023-11-08T13:05:56.163Z,11.26
2023-11-08T13:08:25.142Z,11.30
2023-11-08T13:10:51.522Z,11.32
2023-11-08T13:13:19.082Z,11.34
2023-11-08T13:15:47.444Z,11.33
2023-11-08T13:18:14.994Z,11.38
2023-11-08T13:20:42.937Z,11.31
2023-11-08T13:23:19.702Z,11.34
2023-11-08T13:25:59.201Z,11.34
2023-11-08T13:28:26.837Z,11.33
2023-11-08T13:30:54.595Z,11.31
2023-11-08T13:33:22.272Z,11.35
2023-11-08T13:35:49.900Z,11.27
2023-11-08T13:38:17.721Z,11.30
2023-11-08T13:40:44.335Z,11.30
2023-11-08T13:43:12.005Z,11.27
2023-11-08T13:45:38.872Z,11.33
2023-11-08T13:48:05.592Z,11.32
2023-11-08T13:50:34.245Z,11.36
2023-11-08T13:53:00.817Z,11.32
2023-11-08T13:55:27.366Z,11.36
2023-11-08T13:57:55.017Z,11.43
2023-11-08T14:00:23.806Z,11.39
2023-11-08T14:02:50.586Z,11.40
2023-11-08T14:05:18.420Z,11.47
2023-11-08T14:07:45.044Z,11.47
2023-11-08T14:10:11.660Z,11.47
2023-11-08T14:12:40.526Z,11.46
2023-11-08T14:15:08.891Z,11.56
2023-11-08T14:17:36.631Z,11.57
2023-11-08T14:20:04.477Z,11.58
2023-11-08T14:22:31.072Z,11.59
2023-11-08T14:24:57.711Z,11.67
2023-11-08T14:27:25.448Z,11.62
2023-11-08T14:29:52.093Z,11.67
2023-11-08T14:32:19.068Z,11.65
2023-11-08T14:34:46.877Z,11.61
2023-11-08T14:37:13.675Z,11.58
2023-11-08T14:39:41.572Z,11.63
2023-11-08T14:42:08.174Z,11.62
2023-11-08T14:44:35.904Z,11.61
2023-11-08T14:47:02.471Z,11.63
2023-11-08T14:49:31.783Z,11.62
2023-11-08T14:52:00.664Z,11.74
2023-11-08T14:54:28.165Z,11.81
2023-11-08T14:56:54.601Z,11.80
2023-11-08T14:59:25.309Z,11.76
2023-11-08T15:01:53.324Z,11.79
2023-11-08T15:04:19.989Z,11.77
2023-11-08T15:06:47.999Z,11.76
2023-11-08T15:09:52.593Z,11.81
2023-11-08T15:12:02.340Z,11.81
2023-11-08T15:14:28.939Z,11.79
2023-11-08T15:16:55.477Z,11.76
2023-11-08T15:19:24.521Z,11.74
2023-11-08T15:21:53.153Z,11.77
2023-11-08T15:24:19.801Z,11.79
2023-11-08T15:26:47.470Z,11.74
2023-11-08T15:29:14.045Z,11.68
2023-11-08T15:31:40.626Z,11.65
2023-11-08T15:34:12.327Z,11.53
2023-11-08T15:36:38.935Z,11.34
2023-11-08T15:39:05.651Z,11.15
2023-11-08T15:41:33.273Z,11.04
2023-11-08T15:43:59.837Z,10.99
2023-11-08T15:46:28.743Z,10.91
2023-11-08T15:48:56.243Z,10.85
2023-11-08T15:51:22.702Z,10.85
2023-11-08T15:53:49.334Z,10.82
2023-11-08T15:56:17.078Z,10.77
2023-11-08T15:58:43.689Z,10.75
2023-11-08T16:01:10.392Z,10.78
2023-11-08T16:03:38.117Z,10.76
2023-11-08T16:06:05.075Z,10.74
2023-11-08T16:08:31.695Z,10.73
2023-11-08T16:10:59.302Z,10.67
2023-11-08T16:13:25.896Z,10.66
2023-11-08T16:15:52.566Z,10.68
2023-11-08T16:18:20.264Z,10.69
2023-11-08T16:20:47.962Z,10.69
2023-11-08T16:23:14.517Z,10.64
2023-11-08T16:25:42.135Z,10.59
2023-11-08T16:28:08.790Z,10.59
2023-11-08T16:31:00.283Z,10.58
2023-11-08T16:33:23.210Z,10.50
2023-11-08T16:35:51.475Z,10.48
2023-11-08T16:38:18.265Z,10.52
2023-11-08T16:40:45.151Z,10.52
2023-11-08T16:43:13.384Z,10.49
2023-11-08T16:45:41.154Z,10.47
2023-11-08T16:48:08.326Z,10.50
2023-11-08T16:50:35.933Z,10.51
2023-11-08T16:53:02.522Z,10.44
2023-11-08T16:55:30.172Z,10.45
2023-11-08T16:57:56.778Z,10.43
2023-11-08T17:00:23.576Z,10.42
2023-11-08T17:02:52.415Z,10.43
2023-11-08T17:05:20.193Z,10.45
2023-11-08T17:07:47.868Z,10.44
2023-11-08T17:10:14.737Z,10.43
2023-11-08T17:12:41.887Z,10.46
2023-11-08T17:15:10.241Z,10.43
2023-11-08T17:17:36.924Z,10.44
2023-11-08T17:20:04.704Z,10.46
2023-11-08T17:22:34.289Z,10.39
2023-11-08T17:25:02.828Z,10.46
2023-11-08T17:27:30.401Z,10.50
2023-11-08T17:29:56.964Z,10.50
2023-11-08T17:32:24.959Z,10.46
2023-11-08T17:34:51.602Z,10.48
2023-11-08T17:37:19.353Z,10.47
2023-11-08T17:39:46.027Z,10.48
2023-11-08T17:42:14.637Z,10.46
2023-11-08T17:44:43.783Z,10.43
2023-11-08T17:47:13.654Z,10.38
2023-11-08T17:49:44.357Z,10.38
2023-11-08T17:52:16.413Z,10.43
2023-11-08T17:54:46.109Z,10.41
2023-11-08T17:57:12.723Z,10.38
2023-11-08T17:59:40.368Z,10.33
2023-11-08T18:02:07.501Z,10.33
2023-11-08T18:04:34.216Z,10.31
2023-11-08T18:07:02.007Z,10.32
2023-11-08T18:09:29.682Z,10.28
2023-11-08T18:11:56.794Z,10.29
2023-11-08T18:14:27.830Z,10.25
2023-11-08T18:16:59.446Z,10.15
2023-11-08T18:19:27.247Z,10.16
2023-11-08T18:21:57.114Z,10.03
2023-11-08T18:24:23.982Z,10.01
2023-11-08T18:26:56.390Z,9.91
2023-11-08T18:29:22.957Z,9.87
2023-11-08T18:31:50.851Z,9.85
2023-11-08T18:34:17.578Z,9.80
2023-11-08T18:36:45.388Z,9.75
2023-11-08T18:39:11.945Z,9.69
2023-11-08T18:41:38.504Z,9.74
2023-11-08T18:44:06.373Z,9.73
2023-11-08T18:46:33.042Z,9.69
2023-11-08T18:49:02.902Z,9.71
2023-11-08T18:51:29.498Z,9.94
2023-11-08T18:53:56.107Z,10.11
2023-11-08T18:56:23.729Z,10.25
2023-11-08T18:58:50.434Z,10.34
2023-11-08T19:01:18.113Z,10.49
2023-11-08T19:03:44.843Z,10.70
2023-11-08T19:06:11.429Z,10.70
2023-11-08T19:08:39.054Z,11.03
2023-11-08T19:11:07.787Z,11.38
2023-11-08T19:13:36.864Z,11.54
2023-11-08T19:16:03.590Z,11.73
2023-11-08T19:18:32.347Z,11.82
2023-11-08T19:21:00.284Z,11.89
2023-11-08T19:23:28.263Z,11.96
2023-11-08T19:25:56.745Z,11.91
2023-11-08T19:28:23.462Z,11.87
2023-11-08T19:30:50.064Z,11.78
2023-11-08T19:33:17.806Z,11.73
2023-11-08T19:35:44.435Z,10.72
2023-11-08T19:38:12.484Z,9.56
2023-11-08T19:40:40.103Z,9.22
2023-11-08T19:43:07.715Z,8.85
2023-11-08T19:45:34.375Z,8.74
2023-11-08T19:48:02.261Z,8.61
2023-11-08T19:50:30.031Z,8.41
2023-11-08T19:52:57.020Z,8.41
2023-11-08T19:55:24.831Z,8.41
2023-11-08T19:57:51.433Z,8.55
2023-11-08T20:00:18.032Z,8.52
2023-11-08T20:02:45.687Z,8.72
2023-11-08T20:05:12.366Z,8.86
2023-11-08T20:07:39.021Z,8.92
2023-11-08T20:10:07.247Z,8.97
2023-11-08T20:12:33.819Z,9.09
2023-11-08T20:15:00.371Z,9.16
2023-11-08T20:17:28.115Z,9.23
2023-11-08T20:19:54.758Z,9.23
2023-11-08T20:22:22.415Z,9.27
2023-11-08T20:24:50.230Z,9.28
2023-11-08T20:27:16.814Z,9.35
2023-11-08T20:29:43.392Z,9.45
2023-11-08T20:32:11.104Z,9.55
2023-11-08T20:34:37.809Z,9.52
2023-11-08T20:37:05.556Z,9.59
2023-11-08T20:39:32.117Z,9.63
2023-11-08T20:41:58.695Z,9.57
2023-11-08T20:44:26.308Z,9.65
2023-11-08T20:46:52.850Z,9.64
2023-11-08T20:49:20.726Z,9.69
2023-11-08T20:51:47.420Z,9.67
2023-11-08T20:54:15.512Z,9.74
2023-11-08T20:56:43.198Z,9.79
2023-11-08T20:59:10.807Z,9.83
2023-11-08T21:01:37.398Z,9.82
2023-11-08T21:04:04.043Z,9.81
2023-11-08T21:06:31.673Z,9.82
2023-11-08T21:08:58.256Z,9.78
2023-11-08T21:11:24.807Z,9.75
2023-11-08T21:13:52.367Z,9.73
2023-11-08T21:16:19.016Z,9.70
2023-11-08T21:18:46.777Z,9.72
2023-11-08T21:21:13.417Z,9.67
2023-11-08T21:23:40.999Z,9.64
2023-11-08T21:26:07.582Z,9.61
2023-11-08T21:28:34.155Z,9.60
2023-11-08T21:31:02.345Z,9.61
2023-11-08T21:33:28.934Z,9.58
2023-11-08T21:35:56.571Z,9.51
2023-11-08T21:38:23.191Z,9.51
2023-11-08T21:40:50.780Z,9.51
2023-11-08T21:43:18.553Z,9.44
2023-11-08T21:45:46.220Z,9.50
2023-11-08T21:48:13.866Z,9.52
2023-11-08T21:50:40.479Z,9.55
2023-11-08T21:53:07.018Z,9.54
2023-11-08T21:55:34.663Z,9.24
2023-11-08T21:58:01.247Z,8.98
2023-11-08T22:00:27.993Z,8.81
2023-11-08T22:02:55.642Z,8.63
2023-11-08T22:05:23.370Z,8.47
2023-11-08T22:07:49.916Z,8.36
2023-11-08T22:10:16.638Z,8.24
2023-11-08T22:12:44.316Z,8.13
2023-11-08T22:15:10.944Z,8.05
2023-11-08T22:17:38.627Z,8.04
2023-11-08T22:20:07.091Z,7.99
2023-11-08T22:22:34.834Z,7.92
2023-11-08T22:25:01.425Z,7.89
2023-11-08T22:27:29.097Z,7.87
2023-11-08T22:29:56.751Z,7.83
2023-11-08T22:32:23.334Z,7.78
2023-11-08T22:34:50.975Z,7.82
2023-11-08T22:37:17.604Z,7.77
2023-11-08T22:39:45.367Z,7.73
2023-11-08T22:42:12.004Z,7.76
2023-11-08T22:44:41.851Z,7.73
2023-11-08T22:47:11.370Z,7.72
2023-11-08T22:49:39.049Z,7.69
2023-11-08T22:52:06.007Z,7.67
2023-11-08T22:54:33.749Z,7.62
2023-11-08T22:57:00.322Z,7.63
2023-11-08T22:59:27.910Z,7.63
2023-11-08T23:01:59.463Z,7.62
2023-11-08T23:04:28.200Z,7.58
2023-11-08T23:06:58.953Z,7.56
2023-11-08T23:09:30.554Z,7.52
2023-11-08T23:11:57.094Z,7.56
2023-11-08T23:14:23.747Z,7.55
2023-11-08T23:16:51.454Z,7.52
2023-11-08T23:19:18.126Z,7.49
2023-11-08T23:21:45.818Z,7.47
2023-11-08T23:24:12.760Z,7.48
2023-11-08T23:26:40.413Z,7.46
2023-11-08T23:29:07.215Z,7.46
2023-11-08T23:31:33.860Z,7.43
2023-11-08T23:34:01.533Z,7.41
2023-11-08T23:36:28.129Z,7.42
2023-11-08T23:38:55.890Z,7.32
2023-11-08T23:41:22.446Z,7.34
2023-11-08T23:43:49.652Z,7.36
2023-11-08T23:46:17.675Z,7.36
2023-11-08T23:48:44.334Z,7.32
2023-11-08T23:51:14.111Z,7.31
2023-11-08T23:53:40.721Z,7.28
2023-11-08T23:56:08.261Z,7.22
2023-11-08T23:58:35.915Z,7.25
